Muir Army Air Field (Fort Indiantown Gap) Airport Fort Indiantown Gap(Annville) US
ICAO: KMUI
IATA: MUI
Category: Medium
Scheduled Services: No

Elevation: 488 ft
TransAlt. 18000 ft.

Airport Communications:
HARRISBURG APP/DEP:118.25
CTAF:126.2
GND:121.625
FLT FLW:40.9
ARNG OPS:49.95
TWR:126.2

KMUI Zoom In..

Runways:

(A) RW 07 length 3978 ft width 98 ft
---- / hdg 70

(B) RW 25 length 3978 ft width 98 ft
---- / hdg 250

Location; KMUI
Day. 16 / Time. 17.56 Zulu
* Altimeter: 29.97
* Temperature: 32° c. 89.6°f.
* Wind from: 230° Speed 05 kn.
Dewpoint: 22° c.
Visibility: 10 Statute Miles.
Clouds: Few 5000 ft.
Clouds: Few 16000 ft.

KMUI 161756Z 23005KT 10SM FEW050 FEW160 32/22 A2997 RMK AO2A SLP147 T03150216 10317 20223 58009 $


Wind From 230°
Speed 05 kn.

 
 
jpsmedia.com for Web Design worldairports.se 2018   terms of use